sensor_id;sensor_type;location;lat;lon;timestamp;temperature;humidity
18581;DHT22;9420;50.876;7.012;2023-04-28T00:01:44;12.90;1.00
18581;DHT22;9420;50.876;7.012;2023-04-28T00:04:13;13.00;1.00
18581;DHT22;9420;50.876;7.012;2023-04-28T00:06:40;13.00;1.00
18581;DHT22;9420;50.876;7.012;2023-04-28T00:09:07;13.00;1.00
18581;DHT22;9420;50.876;7.012;2023-04-28T00:11:35;12.90;1.00
18581;DHT22;9420;50.876;7.012;2023-04-28T00:14:03;12.80;1.00
18581;DHT22;9420;50.876;7.012;2023-04-28T00:16:30;12.80;1.00
18581;DHT22;9420;50.876;7.012;2023-04-28T00:18:57;12.90;1.00
18581;DHT22;9420;50.876;7.012;2023-04-28T00:21:25;12.80;1.00
18581;DHT22;9420;50.876;7.012;2023-04-28T00:23:53;12.80;1.00
18581;DHT22;9420;50.876;7.012;2023-04-28T00:26:20;12.70;1.00
18581;DHT22;9420;50.876;7.012;2023-04-28T00:28:47;12.60;1.00
18581;DHT22;9420;50.876;7.012;2023-04-28T00:31:14;12.70;1.00
18581;DHT22;9420;50.876;7.012;2023-04-28T00:33:42;12.60;1.00
18581;DHT22;9420;50.876;7.012;2023-04-28T00:36:10;12.60;1.00
18581;DHT22;9420;50.876;7.012;2023-04-28T00:38:39;12.70;1.00
18581;DHT22;9420;50.876;7.012;2023-04-28T00:41:08;12.70;1.00
18581;DHT22;9420;50.876;7.012;2023-04-28T00:43:43;12.70;1.00
18581;DHT22;9420;50.876;7.012;2023-04-28T00:46:19;12.70;1.00
18581;DHT22;9420;50.876;7.012;2023-04-28T00:48:48;12.80;1.00
18581;DHT22;9420;50.876;7.012;2023-04-28T00:51:15;12.70;1.00
18581;DHT22;9420;50.876;7.012;2023-04-28T00:53:44;12.70;1.00
18581;DHT22;9420;50.876;7.012;2023-04-28T00:56:11;12.60;1.00
18581;DHT22;9420;50.876;7.012;2023-04-28T00:58:38;12.50;1.00
18581;DHT22;9420;50.876;7.012;2023-04-28T01:01:07;12.40;23.10
18581;DHT22;9420;50.876;7.012;2023-04-28T01:03:36;12.50;1.00
18581;DHT22;9420;50.876;7.012;2023-04-28T01:06:05;12.40;1.00
18581;DHT22;9420;50.876;7.012;2023-04-28T01:08:36;12.50;1.00
18581;DHT22;9420;50.876;7.012;2023-04-28T01:11:05;12.50;1.00
18581;DHT22;9420;50.876;7.012;2023-04-28T01:13:34;12.50;1.00
18581;DHT22;9420;50.876;7.012;2023-04-28T01:16:02;12.50;1.00
18581;DHT22;9420;50.876;7.012;2023-04-28T01:18:30;12.50;1.00
18581;DHT22;9420;50.876;7.012;2023-04-28T01:20:57;12.50;1.00
18581;DHT22;9420;50.876;7.012;2023-04-28T01:23:24;12.50;1.00
18581;DHT22;9420;50.876;7.012;2023-04-28T01:25:53;12.50;1.00
18581;DHT22;9420;50.876;7.012;2023-04-28T01:28:22;12.50;5.50
18581;DHT22;9420;50.876;7.012;2023-04-28T01:30:49;12.40;99.90
18581;DHT22;9420;50.876;7.012;2023-04-28T01:33:16;12.30;99.90
18581;DHT22;9420;50.876;7.012;2023-04-28T01:35:43;12.30;99.90
18581;DHT22;9420;50.876;7.012;2023-04-28T01:38:10;12.20;99.90
18581;DHT22;9420;50.876;7.012;2023-04-28T01:40:37;12.20;99.90
18581;DHT22;9420;50.876;7.012;2023-04-28T01:43:05;12.30;99.90
18581;DHT22;9420;50.876;7.012;2023-04-28T01:45:32;12.10;1.00
18581;DHT22;9420;50.876;7.012;2023-04-28T01:47:59;12.00;1.00
18581;DHT22;9420;50.876;7.012;2023-04-28T01:50:26;11.90;1.00
18581;DHT22;9420;50.876;7.012;2023-04-28T01:52:53;11.90;1.00
18581;DHT22;9420;50.876;7.012;2023-04-28T01:55:20;11.90;1.00
18581;DHT22;9420;50.876;7.012;2023-04-28T01:57:47;11.90;1.00
18581;DHT22;9420;50.876;7.012;2023-04-28T02:00:16;11.90;1.00
18581;DHT22;9420;50.876;7.012;2023-04-28T02:02:44;11.80;29.30
18581;DHT22;9420;50.876;7.012;2023-04-28T02:05:11;11.70;99.90
18581;DHT22;9420;50.876;7.012;2023-04-28T02:07:38;11.60;99.90
18581;DHT22;9420;50.876;7.012;2023-04-28T02:10:06;11.60;99.90
18581;DHT22;9420;50.876;7.012;2023-04-28T02:12:34;11.60;99.90
18581;DHT22;9420;50.876;7.012;2023-04-28T02:15:01;11.60;1.00
18581;DHT22;9420;50.876;7.012;2023-04-28T02:17:30;11.60;1.00
18581;DHT22;9420;50.876;7.012;2023-04-28T02:19:57;11.60;1.00
18581;DHT22;9420;50.876;7.012;2023-04-28T02:22:24;11.60;1.00
18581;DHT22;9420;50.876;7.012;2023-04-28T02:24:51;11.60;1.00
18581;DHT22;9420;50.876;7.012;2023-04-28T02:27:20;11.50;1.00
18581;DHT22;9420;50.876;7.012;2023-04-28T02:29:47;11.60;1.00
18581;DHT22;9420;50.876;7.012;2023-04-28T02:32:14;11.50;1.00
18581;DHT22;9420;50.876;7.012;2023-04-28T02:34:42;11.50;1.00
18581;DHT22;9420;50.876;7.012;2023-04-28T02:37:09;11.50;1.00
18581;DHT22;9420;50.876;7.012;2023-04-28T02:39:36;11.40;1.00
18581;DHT22;9420;50.876;7.012;2023-04-28T02:42:04;11.40;1.00
18581;DHT22;9420;50.876;7.012;2023-04-28T02:44:31;11.40;27.40
18581;DHT22;9420;50.876;7.012;2023-04-28T02:46:58;11.40;91.50
18581;DHT22;9420;50.876;7.012;2023-04-28T02:49:26;11.30;1.00
18581;DHT22;9420;50.876;7.012;2023-04-28T02:51:54;11.30;1.00
18581;DHT22;9420;50.876;7.012;2023-04-28T02:54:21;11.30;1.00
18581;DHT22;9420;50.876;7.012;2023-04-28T02:56:52;11.30;99.90
18581;DHT22;9420;50.876;7.012;2023-04-28T02:59:20;11.30;99.90
18581;DHT22;9420;50.876;7.012;2023-04-28T03:01:47;11.30;1.00
18581;DHT22;9420;50.876;7.012;2023-04-28T03:04:15;11.30;1.00
18581;DHT22;9420;50.876;7.012;2023-04-28T03:06:42;11.40;1.00
18581;DHT22;9420;50.876;7.012;2023-04-28T03:09:10;11.40;99.90
18581;DHT22;9420;50.876;7.012;2023-04-28T03:11:38;11.50;99.90
18581;DHT22;9420;50.876;7.012;2023-04-28T03:14:05;11.40;1.00
18581;DHT22;9420;50.876;7.012;2023-04-28T03:16:34;11.40;1.00
18581;DHT22;9420;50.876;7.012;2023-04-28T03:19:02;11.30;47.50
18581;DHT22;9420;50.876;7.012;2023-04-28T03:21:29;11.30;99.90
18581;DHT22;9420;50.876;7.012;2023-04-28T03:23:56;11.30;1.00
18581;DHT22;9420;50.876;7.012;2023-04-28T03:26:25;11.40;1.00
18581;DHT22;9420;50.876;7.012;2023-04-28T03:28:52;11.40;1.00
18581;DHT22;9420;50.876;7.012;2023-04-28T03:31:20;11.40;1.00
18581;DHT22;9420;50.876;7.012;2023-04-28T03:33:46;11.40;1.00
18581;DHT22;9420;50.876;7.012;2023-04-28T03:36:13;11.40;99.90
18581;DHT22;9420;50.876;7.012;2023-04-28T03:38:41;11.40;1.00
18581;DHT22;9420;50.876;7.012;2023-04-28T03:41:08;11.40;57.20
18581;DHT22;9420;50.876;7.012;2023-04-28T03:43:36;11.40;1.00
18581;DHT22;9420;50.876;7.012;2023-04-28T03:46:03;11.40;1.00
18581;DHT22;9420;50.876;7.012;2023-04-28T03:48:30;11.40;1.00
18581;DHT22;9420;50.876;7.012;2023-04-28T03:50:57;11.40;1.00
18581;DHT22;9420;50.876;7.012;2023-04-28T03:53:24;11.40;99.90
18581;DHT22;9420;50.876;7.012;2023-04-28T03:55:51;11.40;1.00
18581;DHT22;9420;50.876;7.012;2023-04-28T03:58:18;11.30;1.00
18581;DHT22;9420;50.876;7.012;2023-04-28T04:00:50;11.30;1.00
18581;DHT22;9420;50.876;7.012;2023-04-28T04:03:17;11.20;1.00
18581;DHT22;9420;50.876;7.012;2023-04-28T04:05:46;11.10;1.00
18581;DHT22;9420;50.876;7.012;2023-04-28T04:08:14;11.10;1.00
18581;DHT22;9420;50.876;7.012;2023-04-28T04:10:41;11.10;99.90
18581;DHT22;9420;50.876;7.012;2023-04-28T04:13:08;11.20;1.00
18581;DHT22;9420;50.876;7.012;2023-04-28T04:15:35;11.20;1.00
18581;DHT22;9420;50.876;7.012;2023-04-28T04:18:04;11.20;1.00
18581;DHT22;9420;50.876;7.012;2023-04-28T04:20:31;11.20;1.00
18581;DHT22;9420;50.876;7.012;2023-04-28T04:22:58;11.30;99.90
18581;DHT22;9420;50.876;7.012;2023-04-28T04:25:26;11.30;99.90
18581;DHT22;9420;50.876;7.012;2023-04-28T04:27:53;11.30;99.90
18581;DHT22;9420;50.876;7.012;2023-04-28T04:30:20;11.20;99.90
18581;DHT22;9420;50.876;7.012;2023-04-28T04:32:47;11.30;99.90
18581;DHT22;9420;50.876;7.012;2023-04-28T04:35:16;11.30;99.90
18581;DHT22;9420;50.876;7.012;2023-04-28T04:37:43;11.30;99.90
18581;DHT22;9420;50.876;7.012;2023-04-28T04:40:11;11.30;99.90
18581;DHT22;9420;50.876;7.012;2023-04-28T04:42:38;11.30;99.90
18581;DHT22;9420;50.876;7.012;2023-04-28T04:45:06;11.30;99.90
18581;DHT22;9420;50.876;7.012;2023-04-28T04:47:34;11.30;99.90
18581;DHT22;9420;50.876;7.012;2023-04-28T04:50:01;11.30;99.90
18581;DHT22;9420;50.876;7.012;2023-04-28T04:52:29;11.30;99.90
18581;DHT22;9420;50.876;7.012;2023-04-28T04:54:56;11.30;99.90
18581;DHT22;9420;50.876;7.012;2023-04-28T04:57:23;11.30;99.90
18581;DHT22;9420;50.876;7.012;2023-04-28T04:59:50;11.20;99.90
18581;DHT22;9420;50.876;7.012;2023-04-28T05:02:17;11.30;1.00
18581;DHT22;9420;50.876;7.012;2023-04-28T05:04:44;11.30;99.90
18581;DHT22;9420;50.876;7.012;2023-04-28T05:07:11;11.30;1.00
18581;DHT22;9420;50.876;7.012;2023-04-28T05:09:40;11.30;1.00
18581;DHT22;9420;50.876;7.012;2023-04-28T05:12:07;11.20;1.00
18581;DHT22;9420;50.876;7.012;2023-04-28T05:14:35;11.30;1.00
18581;DHT22;9420;50.876;7.012;2023-04-28T05:17:04;11.20;1.00
18581;DHT22;9420;50.876;7.012;2023-04-28T05:19:32;11.20;1.00
18581;DHT22;9420;50.876;7.012;2023-04-28T05:21:59;11.20;1.00
18581;DHT22;9420;50.876;7.012;2023-04-28T05:24:26;11.10;1.00
18581;DHT22;9420;50.876;7.012;2023-04-28T05:26:57;11.20;1.00
18581;DHT22;9420;50.876;7.012;2023-04-28T05:29:24;11.20;1.00
18581;DHT22;9420;50.876;7.012;2023-04-28T05:31:51;11.20;1.00
18581;DHT22;9420;50.876;7.012;2023-04-28T05:34:18;11.20;23.90
18581;DHT22;9420;50.876;7.012;2023-04-28T05:36:46;11.20;99.90
18581;DHT22;9420;50.876;7.012;2023-04-28T05:39:13;11.20;99.90
18581;DHT22;9420;50.876;7.012;2023-04-28T05:41:40;11.20;1.00
18581;DHT22;9420;50.876;7.012;2023-04-28T05:44:08;11.20;1.00
18581;DHT22;9420;50.876;7.012;2023-04-28T05:46:35;11.20;1.00
18581;DHT22;9420;50.876;7.012;2023-04-28T05:49:02;11.20;1.00
18581;DHT22;9420;50.876;7.012;2023-04-28T05:51:29;11.20;1.00
18581;DHT22;9420;50.876;7.012;2023-04-28T05:53:58;11.20;1.00
18581;DHT22;9420;50.876;7.012;2023-04-28T05:56:28;11.30;1.00
18581;DHT22;9420;50.876;7.012;2023-04-28T05:58:58;11.30;1.00
18581;DHT22;9420;50.876;7.012;2023-04-28T06:01:30;11.30;1.00
18581;DHT22;9420;50.876;7.012;2023-04-28T06:03:57;11.40;1.00
18581;DHT22;9420;50.876;7.012;2023-04-28T06:06:24;11.40;1.00
18581;DHT22;9420;50.876;7.012;2023-04-28T06:08:52;11.50;1.00
18581;DHT22;9420;50.876;7.012;2023-04-28T06:11:19;11.50;1.00
18581;DHT22;9420;50.876;7.012;2023-04-28T06:13:47;11.60;1.00
18581;DHT22;9420;50.876;7.012;2023-04-28T06:16:14;11.60;1.00
18581;DHT22;9420;50.876;7.012;2023-04-28T06:18:44;11.60;1.00
18581;DHT22;9420;50.876;7.012;2023-04-28T06:21:12;11.60;1.00
18581;DHT22;9420;50.876;7.012;2023-04-28T06:23:39;11.70;1.00
18581;DHT22;9420;50.876;7.012;2023-04-28T06:26:07;11.70;1.00
18581;DHT22;9420;50.876;7.012;2023-04-28T06:28:34;11.70;1.00
18581;DHT22;9420;50.876;7.012;2023-04-28T06:31:01;11.80;1.00
18581;DHT22;9420;50.876;7.012;2023-04-28T06:33:28;11.80;1.00
18581;DHT22;9420;50.876;7.012;2023-04-28T06:35:56;11.80;99.90
18581;DHT22;9420;50.876;7.012;2023-04-28T06:38:23;11.80;99.90
18581;DHT22;9420;50.876;7.012;2023-04-28T06:40:51;11.80;99.90
18581;DHT22;9420;50.876;7.012;2023-04-28T06:43:18;11.80;99.90
18581;DHT22;9420;50.876;7.012;2023-04-28T06:45:45;11.90;99.90
18581;DHT22;9420;50.876;7.012;2023-04-28T06:48:12;12.10;99.90
18581;DHT22;9420;50.876;7.012;2023-04-28T06:50:39;12.20;99.90
18581;DHT22;9420;50.876;7.012;2023-04-28T06:53:08;12.20;99.90
18581;DHT22;9420;50.876;7.012;2023-04-28T06:55:35;12.30;99.90
18581;DHT22;9420;50.876;7.012;2023-04-28T06:58:02;12.40;99.90
18581;DHT22;9420;50.876;7.012;2023-04-28T07:00:29;12.40;99.90
18581;DHT22;9420;50.876;7.012;2023-04-28T07:02:56;12.50;99.90
18581;DHT22;9420;50.876;7.012;2023-04-28T07:05:23;12.60;22.00
18581;DHT22;9420;50.876;7.012;2023-04-28T07:07:50;12.70;1.00
18581;DHT22;9420;50.876;7.012;2023-04-28T07:10:19;12.80;1.00
18581;DHT22;9420;50.876;7.012;2023-04-28T07:12:46;12.80;1.00
18581;DHT22;9420;50.876;7.012;2023-04-28T07:15:13;12.80;1.00
18581;DHT22;9420;50.876;7.012;2023-04-28T07:17:40;12.90;1.00
18581;DHT22;9420;50.876;7.012;2023-04-28T07:20:08;12.90;1.00
18581;DHT22;9420;50.876;7.012;2023-04-28T07:22:35;13.00;1.00
18581;DHT22;9420;50.876;7.012;2023-04-28T07:25:03;12.90;1.00
18581;DHT22;9420;50.876;7.012;2023-04-28T07:27:32;12.90;1.00
18581;DHT22;9420;50.876;7.012;2023-04-28T07:29:59;12.90;1.00
18581;DHT22;9420;50.876;7.012;2023-04-28T07:32:26;12.90;1.00
18581;DHT22;9420;50.876;7.012;2023-04-28T07:34:53;12.90;1.00
18581;DHT22;9420;50.876;7.012;2023-04-28T07:37:20;12.80;1.00
18581;DHT22;9420;50.876;7.012;2023-04-28T07:39:47;12.70;1.00
18581;DHT22;9420;50.876;7.012;2023-04-28T07:42:14;12.80;1.00
18581;DHT22;9420;50.876;7.012;2023-04-28T07:44:43;13.00;1.00
18581;DHT22;9420;50.876;7.012;2023-04-28T07:47:10;13.20;1.00
18581;DHT22;9420;50.876;7.012;2023-04-28T07:49:38;13.50;1.00
18581;DHT22;9420;50.876;7.012;2023-04-28T07:52:08;13.60;1.00
18581;DHT22;9420;50.876;7.012;2023-04-28T07:54:36;13.90;1.00
18581;DHT22;9420;50.876;7.012;2023-04-28T07:57:03;14.00;99.90
18581;DHT22;9420;50.876;7.012;2023-04-28T07:59:31;14.00;99.90
18581;DHT22;9420;50.876;7.012;2023-04-28T08:02:00;14.10;99.90
18581;DHT22;9420;50.876;7.012;2023-04-28T08:04:27;14.10;99.90
18581;DHT22;9420;50.876;7.012;2023-04-28T08:06:58;14.20;99.90
18581;DHT22;9420;50.876;7.012;2023-04-28T08:09:25;14.60;99.90
18581;DHT22;9420;50.876;7.012;2023-04-28T08:11:52;14.80;99.90
18581;DHT22;9420;50.876;7.012;2023-04-28T08:14:19;15.00;99.90
18581;DHT22;9420;50.876;7.012;2023-04-28T08:16:47;15.00;99.90
18581;DHT22;9420;50.876;7.012;2023-04-28T08:19:15;15.30;82.70
18581;DHT22;9420;50.876;7.012;2023-04-28T08:21:42;15.50;1.00
18581;DHT22;9420;50.876;7.012;2023-04-28T08:24:09;15.40;1.00
18581;DHT22;9420;50.876;7.012;2023-04-28T08:26:36;15.20;1.00
18581;DHT22;9420;50.876;7.012;2023-04-28T08:29:04;15.30;31.00
18581;DHT22;9420;50.876;7.012;2023-04-28T08:31:31;15.30;1.00
18581;DHT22;9420;50.876;7.012;2023-04-28T08:33:58;15.40;1.00
18581;DHT22;9420;50.876;7.012;2023-04-28T08:36:27;15.50;1.00
18581;DHT22;9420;50.876;7.012;2023-04-28T08:38:57;15.70;1.00
18581;DHT22;9420;50.876;7.012;2023-04-28T08:41:25;15.80;1.00
18581;DHT22;9420;50.876;7.012;2023-04-28T08:43:54;15.90;1.00
18581;DHT22;9420;50.876;7.012;2023-04-28T08:46:21;16.00;1.00
18581;DHT22;9420;50.876;7.012;2023-04-28T08:48:57;16.10;1.00
18581;DHT22;9420;50.876;7.012;2023-04-28T08:51:33;16.10;1.00
18581;DHT22;9420;50.876;7.012;2023-04-28T08:54:03;16.10;1.00
18581;DHT22;9420;50.876;7.012;2023-04-28T08:56:33;16.00;1.00
18581;DHT22;9420;50.876;7.012;2023-04-28T08:59:02;15.80;1.00
18581;DHT22;9420;50.876;7.012;2023-04-28T09:01:30;15.70;1.00
18581;DHT22;9420;50.876;7.012;2023-04-28T09:04:00;15.80;99.90
18581;DHT22;9420;50.876;7.012;2023-04-28T09:06:32;15.60;99.90
18581;DHT22;9420;50.876;7.012;2023-04-28T09:09:20;15.40;1.00
18581;DHT22;9420;50.876;7.012;2023-04-28T09:11:53;15.20;1.00
18581;DHT22;9420;50.876;7.012;2023-04-28T09:14:23;15.10;99.90
18581;DHT22;9420;50.876;7.012;2023-04-28T09:16:52;14.90;99.90
18581;DHT22;9420;50.876;7.012;2023-04-28T09:19:20;14.70;1.00
18581;DHT22;9420;50.876;7.012;2023-04-28T09:21:53;14.70;1.00
18581;DHT22;9420;50.876;7.012;2023-04-28T09:24:31;14.70;1.00
18581;DHT22;9420;50.876;7.012;2023-04-28T09:27:01;14.50;28.50
18581;DHT22;9420;50.876;7.012;2023-04-28T09:29:29;14.50;99.90
18581;DHT22;9420;50.876;7.012;2023-04-28T09:32:12;14.40;99.90
18581;DHT22;9420;50.876;7.012;2023-04-28T09:34:42;14.40;1.00
18581;DHT22;9420;50.876;7.012;2023-04-28T09:37:15;14.40;1.00
18581;DHT22;9420;50.876;7.012;2023-04-28T09:39:44;14.40;22.40
18581;DHT22;9420;50.876;7.012;2023-04-28T09:42:30;14.40;99.90
18581;DHT22;9420;50.876;7.012;2023-04-28T09:44:59;14.30;1.00
18581;DHT22;9420;50.876;7.012;2023-04-28T09:47:28;14.30;1.00
18581;DHT22;9420;50.876;7.012;2023-04-28T09:49:58;14.40;1.00
18581;DHT22;9420;50.876;7.012;2023-04-28T09:52:28;14.40;99.90
18581;DHT22;9420;50.876;7.012;2023-04-28T09:54:56;14.50;99.90
18581;DHT22;9420;50.876;7.012;2023-04-28T09:57:24;14.50;99.90
18581;DHT22;9420;50.876;7.012;2023-04-28T09:59:53;14.50;99.90
18581;DHT22;9420;50.876;7.012;2023-04-28T10:02:20;14.50;99.90
18581;DHT22;9420;50.876;7.012;2023-04-28T10:04:48;14.50;1.00
18581;DHT22;9420;50.876;7.012;2023-04-28T10:07:19;14.50;99.90
18581;DHT22;9420;50.876;7.012;2023-04-28T10:09:49;14.40;99.90
18581;DHT22;9420;50.876;7.012;2023-04-28T10:12:17;14.40;1.00
18581;DHT22;9420;50.876;7.012;2023-04-28T10:14:45;14.40;99.90
18581;DHT22;9420;50.876;7.012;2023-04-28T10:17:15;14.30;99.90
18581;DHT22;9420;50.876;7.012;2023-04-28T10:19:44;14.30;1.00
18581;DHT22;9420;50.876;7.012;2023-04-28T10:22:28;14.20;1.00
18581;DHT22;9420;50.876;7.012;2023-04-28T10:25:19;14.20;99.90
18581;DHT22;9420;50.876;7.012;2023-04-28T10:27:52;14.10;1.00
18581;DHT22;9420;50.876;7.012;2023-04-28T10:30:22;14.00;1.00
18581;DHT22;9420;50.876;7.012;2023-04-28T10:33:23;14.00;1.00
18581;DHT22;9420;50.876;7.012;2023-04-28T10:35:53;14.00;1.00
18581;DHT22;9420;50.876;7.012;2023-04-28T10:38:20;14.00;99.90
18581;DHT22;9420;50.876;7.012;2023-04-28T10:40:49;14.00;1.00
18581;DHT22;9420;50.876;7.012;2023-04-28T10:43:35;14.00;1.00
18581;DHT22;9420;50.876;7.012;2023-04-28T10:46:07;14.10;1.00
18581;DHT22;9420;50.876;7.012;2023-04-28T10:48:55;14.20;99.90
18581;DHT22;9420;50.876;7.012;2023-04-28T10:51:33;14.30;99.90
18581;DHT22;9420;50.876;7.012;2023-04-28T10:54:13;14.30;99.90
18581;DHT22;9420;50.876;7.012;2023-04-28T10:59:47;14.30;99.90
18581;DHT22;9420;50.876;7.012;2023-04-28T11:02:40;14.30;99.90
18581;DHT22;9420;50.876;7.012;2023-04-28T11:05:23;14.50;99.90
18581;DHT22;9420;50.876;7.012;2023-04-28T11:11:21;14.80;99.90
18581;DHT22;9420;50.876;7.012;2023-04-28T11:13:53;15.00;99.90
18581;DHT22;9420;50.876;7.012;2023-04-28T11:16:23;15.20;1.00
18581;DHT22;9420;50.876;7.012;2023-04-28T11:18:53;15.30;1.00
18581;DHT22;9420;50.876;7.012;2023-04-28T11:21:23;15.60;99.90
18581;DHT22;9420;50.876;7.012;2023-04-28T11:23:53;15.80;1.00
18581;DHT22;9420;50.876;7.012;2023-04-28T11:26:20;16.00;99.90
18581;DHT22;9420;50.876;7.012;2023-04-28T11:28:52;16.20;1.00
18581;DHT22;9420;50.876;7.012;2023-04-28T11:31:22;16.50;1.00
18581;DHT22;9420;50.876;7.012;2023-04-28T11:33:57;17.00;1.00
18581;DHT22;9420;50.876;7.012;2023-04-28T11:36:28;18.00;99.90
18581;DHT22;9420;50.876;7.012;2023-04-28T11:38:57;19.10;1.00
18581;DHT22;9420;50.876;7.012;2023-04-28T11:41:25;20.20;1.00
18581;DHT22;9420;50.876;7.012;2023-04-28T11:43:54;21.30;99.90
18581;DHT22;9420;50.876;7.012;2023-04-28T11:46:22;22.10;1.00
18581;DHT22;9420;50.876;7.012;2023-04-28T11:49:00;21.70;99.90
18581;DHT22;9420;50.876;7.012;2023-04-28T11:51:38;22.30;1.00
18581;DHT22;9420;50.876;7.012;2023-04-28T11:54:07;22.60;1.00
18581;DHT22;9420;50.876;7.012;2023-04-28T11:56:37;22.50;1.00
18581;DHT22;9420;50.876;7.012;2023-04-28T11:59:08;21.30;1.00
18581;DHT22;9420;50.876;7.012;2023-04-28T12:01:44;20.40;99.90
18581;DHT22;9420;50.876;7.012;2023-04-28T12:04:13;19.80;1.00
18581;DHT22;9420;50.876;7.012;2023-04-28T12:06:41;18.90;1.00
18581;DHT22;9420;50.876;7.012;2023-04-28T12:09:15;18.40;1.00
18581;DHT22;9420;50.876;7.012;2023-04-28T12:11:54;18.50;1.00
18581;DHT22;9420;50.876;7.012;2023-04-28T12:14:23;19.10;95.10
18581;DHT22;9420;50.876;7.012;2023-04-28T12:16:51;20.80;1.00
18581;DHT22;9420;50.876;7.012;2023-04-28T12:19:18;21.70;99.90
18581;DHT22;9420;50.876;7.012;2023-04-28T12:22:03;21.60;99.90
18581;DHT22;9420;50.876;7.012;2023-04-28T12:24:33;22.10;99.90
18581;DHT22;9420;50.876;7.012;2023-04-28T12:27:14;22.20;20.50
18581;DHT22;9420;50.876;7.012;2023-04-28T12:29:44;22.70;1.00
18581;DHT22;9420;50.876;7.012;2023-04-28T12:32:14;22.60;1.00
18581;DHT22;9420;50.876;7.012;2023-04-28T12:34:43;23.30;1.00
18581;DHT22;9420;50.876;7.012;2023-04-28T12:37:12;24.10;1.00
18581;DHT22;9420;50.876;7.012;2023-04-28T12:39:41;24.40;1.00
18581;DHT22;9420;50.876;7.012;2023-04-28T12:42:08;25.30;1.00
18581;DHT22;9420;50.876;7.012;2023-04-28T12:44:39;25.80;99.90
18581;DHT22;9420;50.876;7.012;2023-04-28T12:47:16;25.60;99.90
18581;DHT22;9420;50.876;7.012;2023-04-28T12:49:48;24.70;99.90
18581;DHT22;9420;50.876;7.012;2023-04-28T12:52:18;24.10;99.90
18581;DHT22;9420;50.876;7.012;2023-04-28T12:54:45;22.90;99.90
18581;DHT22;9420;50.876;7.012;2023-04-28T12:57:13;23.10;99.90
18581;DHT22;9420;50.876;7.012;2023-04-28T12:59:41;23.70;99.90
18581;DHT22;9420;50.876;7.012;2023-04-28T13:02:12;23.80;99.90
18581;DHT22;9420;50.876;7.012;2023-04-28T13:04:40;23.70;99.90
18581;DHT22;9420;50.876;7.012;2023-04-28T13:07:16;24.00;99.90
18581;DHT22;9420;50.876;7.012;2023-04-28T13:09:54;24.10;99.90
18581;DHT22;9420;50.876;7.012;2023-04-28T13:12:24;23.80;99.90
18581;DHT22;9420;50.876;7.012;2023-04-28T13:14:52;23.20;99.90
18581;DHT22;9420;50.876;7.012;2023-04-28T13:17:23;22.30;99.90
18581;DHT22;9420;50.876;7.012;2023-04-28T13:19:51;21.60;99.90
18581;DHT22;9420;50.876;7.012;2023-04-28T13:22:19;21.30;1.00
18581;DHT22;9420;50.876;7.012;2023-04-28T13:24:46;20.90;1.00
18581;DHT22;9420;50.876;7.012;2023-04-28T13:27:13;20.70;1.00
18581;DHT22;9420;50.876;7.012;2023-04-28T13:29:40;20.60;1.00
18581;DHT22;9420;50.876;7.012;2023-04-28T13:32:09;20.30;1.00
18581;DHT22;9420;50.876;7.012;2023-04-28T13:34:39;20.20;1.00
18581;DHT22;9420;50.876;7.012;2023-04-28T13:37:06;20.90;1.00
18581;DHT22;9420;50.876;7.012;2023-04-28T13:39:33;23.10;99.90
18581;DHT22;9420;50.876;7.012;2023-04-28T13:42:00;24.50;99.90
18581;DHT22;9420;50.876;7.012;2023-04-28T13:44:28;26.00;99.90
18581;DHT22;9420;50.876;7.012;2023-04-28T13:46:55;25.00;99.90
18581;DHT22;9420;50.876;7.012;2023-04-28T13:49:24;23.80;77.50
18581;DHT22;9420;50.876;7.012;2023-04-28T13:51:52;22.70;99.90
18581;DHT22;9420;50.876;7.012;2023-04-28T13:54:20;22.40;99.90
18581;DHT22;9420;50.876;7.012;2023-04-28T13:56:47;22.10;99.90
18581;DHT22;9420;50.876;7.012;2023-04-28T13:59:14;22.70;99.90
18581;DHT22;9420;50.876;7.012;2023-04-28T14:01:41;22.70;99.90
18581;DHT22;9420;50.876;7.012;2023-04-28T14:04:08;23.80;63.20
18581;DHT22;9420;50.876;7.012;2023-04-28T14:06:35;25.00;1.00
18581;DHT22;9420;50.876;7.012;2023-04-28T14:09:04;25.70;1.00
18581;DHT22;9420;50.876;7.012;2023-04-28T14:11:31;25.90;1.00
18581;DHT22;9420;50.876;7.012;2023-04-28T14:13:58;25.90;1.00
18581;DHT22;9420;50.876;7.012;2023-04-28T14:16:25;25.90;1.00
18581;DHT22;9420;50.876;7.012;2023-04-28T14:18:53;27.00;1.00
18581;DHT22;9420;50.876;7.012;2023-04-28T14:21:20;27.90;1.00
18581;DHT22;9420;50.876;7.012;2023-04-28T14:23:47;28.10;1.00
18581;DHT22;9420;50.876;7.012;2023-04-28T14:26:23;26.30;1.00
18581;DHT22;9420;50.876;7.012;2023-04-28T14:28:50;24.20;1.00
18581;DHT22;9420;50.876;7.012;2023-04-28T14:31:18;23.50;1.00
18581;DHT22;9420;50.876;7.012;2023-04-28T14:33:45;23.30;1.00
18581;DHT22;9420;50.876;7.012;2023-04-28T14:36:12;23.90;1.00
18581;DHT22;9420;50.876;7.012;2023-04-28T14:38:39;25.10;1.00
18581;DHT22;9420;50.876;7.012;2023-04-28T14:41:06;26.20;1.00
18581;DHT22;9420;50.876;7.012;2023-04-28T14:43:34;26.10;1.00
18581;DHT22;9420;50.876;7.012;2023-04-28T14:46:02;27.10;1.00
18581;DHT22;9420;50.876;7.012;2023-04-28T14:48:31;26.40;1.00
18581;DHT22;9420;50.876;7.012;2023-04-28T14:50:58;25.10;1.00
18581;DHT22;9420;50.876;7.012;2023-04-28T14:53:26;24.90;1.00
18581;DHT22;9420;50.876;7.012;2023-04-28T14:55:53;25.20;1.00
18581;DHT22;9420;50.876;7.012;2023-04-28T14:58:20;24.10;1.00
18581;DHT22;9420;50.876;7.012;2023-04-28T15:00:48;24.80;1.00
18581;DHT22;9420;50.876;7.012;2023-04-28T15:03:16;25.10;1.00
18581;DHT22;9420;50.876;7.012;2023-04-28T15:05:43;25.20;1.00
18581;DHT22;9420;50.876;7.012;2023-04-28T15:08:10;25.30;1.00
18581;DHT22;9420;50.876;7.012;2023-04-28T15:10:38;24.60;1.00
18581;DHT22;9420;50.876;7.012;2023-04-28T15:13:06;23.20;1.00
18581;DHT22;9420;50.876;7.012;2023-04-28T15:15:33;23.50;1.00
18581;DHT22;9420;50.876;7.012;2023-04-28T15:18:03;24.20;1.00
18581;DHT22;9420;50.876;7.012;2023-04-28T15:20:31;24.50;1.00
18581;DHT22;9420;50.876;7.012;2023-04-28T15:22:59;23.10;1.00
18581;DHT22;9420;50.876;7.012;2023-04-28T15:25:26;22.10;1.00
18581;DHT22;9420;50.876;7.012;2023-04-28T15:27:53;21.50;1.00
18581;DHT22;9420;50.876;7.012;2023-04-28T15:30:20;21.60;1.00
18581;DHT22;9420;50.876;7.012;2023-04-28T15:32:48;22.80;1.00
18581;DHT22;9420;50.876;7.012;2023-04-28T15:35:17;22.90;1.00
18581;DHT22;9420;50.876;7.012;2023-04-28T15:37:45;23.10;1.00
18581;DHT22;9420;50.876;7.012;2023-04-28T15:40:14;23.30;1.00
18581;DHT22;9420;50.876;7.012;2023-04-28T15:42:42;23.30;1.00
18581;DHT22;9420;50.876;7.012;2023-04-28T15:45:13;23.90;1.00
18581;DHT22;9420;50.876;7.012;2023-04-28T15:47:42;24.20;1.00
18581;DHT22;9420;50.876;7.012;2023-04-28T15:50:10;23.50;1.00
18581;DHT22;9420;50.876;7.012;2023-04-28T15:52:39;23.70;1.00
18581;DHT22;9420;50.876;7.012;2023-04-28T15:55:10;23.30;1.00
18581;DHT22;9420;50.876;7.012;2023-04-28T15:57:39;23.20;1.00
18581;DHT22;9420;50.876;7.012;2023-04-28T16:00:10;23.00;1.00
18581;DHT22;9420;50.876;7.012;2023-04-28T16:02:39;22.80;1.00
18581;DHT22;9420;50.876;7.012;2023-04-28T16:05:08;22.70;1.00
18581;DHT22;9420;50.876;7.012;2023-04-28T16:07:35;22.40;1.00
18581;DHT22;9420;50.876;7.012;2023-04-28T16:10:10;22.60;1.00
18581;DHT22;9420;50.876;7.012;2023-04-28T16:12:38;22.60;1.00
18581;DHT22;9420;50.876;7.012;2023-04-28T16:15:09;22.30;1.00